createdAt,value
2019-01-09T00:00:45.724Z,2.30
2019-01-09T00:03:16.728Z,2.90
2019-01-09T00:05:47.358Z,2.43
2019-01-09T00:08:20.093Z,2.67
2019-01-09T00:10:52.464Z,3.17
2019-01-09T00:13:22.877Z,2.63
2019-01-09T00:15:57.096Z,4.35
2019-01-09T00:18:29.519Z,3.47
2019-01-09T00:20:59.870Z,3.40
2019-01-09T00:23:30.395Z,3.43
2019-01-09T00:26:00.774Z,3.57
2019-01-09T00:28:34.037Z,3.43
2019-01-09T00:31:04.342Z,3.73
2019-01-09T00:33:39.151Z,4.30
2019-01-09T00:36:09.834Z,4.35
2019-01-09T00:38:41.751Z,3.70
2019-01-09T00:41:12.016Z,3.97
2019-01-09T00:43:44.301Z,3.93
2019-01-09T00:46:14.595Z,4.27
2019-01-09T00:48:45.908Z,4.28
2019-01-09T00:51:16.893Z,3.80
2019-01-09T00:53:47.302Z,4.33
2019-01-09T00:56:23.089Z,4.47
2019-01-09T00:58:55.847Z,4.28
2019-01-09T01:01:27.113Z,4.70
2019-01-09T01:04:23.838Z,4.27
2019-01-09T01:07:47.843Z,4.03
2019-01-09T01:11:14.546Z,4.20
2019-01-09T01:14:15.610Z,4.10
2019-01-09T01:17:27.242Z,4.87
2019-01-09T01:20:36.679Z,3.83
2019-01-09T01:23:43.276Z,3.97
2019-01-09T01:26:37.027Z,3.90
2019-01-09T01:29:43.832Z,4.13
2019-01-09T01:32:50.176Z,3.73
2019-01-09T01:36:10.791Z,4.20
2019-01-09T01:39:07.440Z,3.43
2019-01-09T01:42:24.434Z,3.42
2019-01-09T01:45:24.111Z,3.67
2019-01-09T01:48:31.821Z,3.93
2019-01-09T01:51:30.236Z,3.70
2019-01-09T01:54:47.328Z,3.43
2019-01-09T01:57:47.938Z,3.93
2019-01-09T02:00:55.187Z,3.60
2019-01-09T02:04:12.953Z,4.30
2019-01-09T02:07:09.886Z,3.67
2019-01-09T02:10:07.990Z,3.93
2019-01-09T02:13:02.194Z,3.27
2019-01-09T02:16:13.179Z,3.63
2019-01-09T02:18:52.937Z,3.63
2019-01-09T02:22:22.724Z,3.40
2019-01-09T02:25:25.948Z,3.73
2019-01-09T02:28:24.994Z,3.40
2019-01-09T02:31:30.866Z,3.80
2019-01-09T02:34:01.166Z,4.33
2019-01-09T02:36:35.588Z,4.20
2019-01-09T02:39:06.237Z,3.80
2019-01-09T02:41:36.594Z,3.70
2019-01-09T02:44:10.032Z,4.13
2019-01-09T02:46:41.474Z,4.16
2019-01-09T02:49:16.891Z,4.50
2019-01-09T02:51:47.407Z,3.83
2019-01-09T02:54:17.729Z,3.83
2019-01-09T02:56:48.363Z,3.50
2019-01-09T02:59:18.664Z,3.07
2019-01-09T03:01:54.040Z,3.42
2019-01-09T03:04:24.416Z,3.70
2019-01-09T03:07:00.484Z,3.95
2019-01-09T03:09:30.587Z,6.67
2019-01-09T03:12:04.436Z,6.47
2019-01-09T03:14:36.438Z,6.80
2019-01-09T03:17:07.974Z,7.05
2019-01-09T03:19:38.508Z,6.00
2019-01-09T03:22:09.265Z,5.80
2019-01-09T03:24:40.937Z,5.43
2019-01-09T03:27:11.918Z,6.17
2019-01-09T03:29:46.996Z,5.13
2019-01-09T03:32:18.164Z,4.92
2019-01-09T03:34:48.628Z,4.93
2019-01-09T03:37:20.162Z,4.72
2019-01-09T03:39:50.831Z,4.03
2019-01-09T03:42:21.139Z,3.47
2019-01-09T03:44:51.424Z,3.70
2019-01-09T03:47:28.745Z,4.72
2019-01-09T03:49:59.154Z,3.47
2019-01-09T03:52:29.924Z,3.47
2019-01-09T03:55:00.282Z,3.53
2019-01-09T03:57:30.580Z,3.30
2019-01-09T04:00:04.425Z,3.20
2019-01-09T04:02:34.795Z,2.40
2019-01-09T04:05:08.358Z,2.10
2019-01-09T04:07:38.870Z,2.30
2019-01-09T04:10:09.303Z,2.43
2019-01-09T04:12:39.626Z,1.87
2019-01-09T04:15:10.745Z,2.35
2019-01-09T04:17:43.065Z,2.27
2019-01-09T04:20:13.669Z,2.37
2019-01-09T04:22:44.176Z,2.00
2019-01-09T04:25:18.279Z,2.40
2019-01-09T04:27:48.586Z,1.83
2019-01-09T04:30:20.515Z,2.15
2019-01-09T04:32:50.845Z,3.03
2019-01-09T04:35:21.283Z,2.00
2019-01-09T04:37:51.628Z,2.37
2019-01-09T04:40:23.276Z,2.70
2019-01-09T04:42:53.562Z,2.70
2019-01-09T04:45:24.702Z,2.70
2019-01-09T04:47:55.327Z,3.10
2019-01-09T04:50:27.313Z,3.50
2019-01-09T04:52:59.773Z,3.70
2019-01-09T04:55:30.530Z,3.98
2019-01-09T04:58:00.898Z,3.80
2019-01-09T05:00:33.014Z,4.20
2019-01-09T05:03:03.495Z,2.93
2019-01-09T05:05:34.524Z,3.90
2019-01-09T05:08:05.113Z,2.70
2019-01-09T05:10:38.891Z,2.86
2019-01-09T05:13:09.565Z,3.17
2019-01-09T05:15:45.151Z,3.30
2019-01-09T05:18:15.703Z,2.60
2019-01-09T05:20:48.035Z,2.97
2019-01-09T05:23:18.637Z,3.22
2019-01-09T05:25:51.020Z,4.33
2019-01-09T05:28:21.394Z,3.93
2019-01-09T05:30:53.188Z,4.17
2019-01-09T05:33:23.743Z,4.43
2019-01-09T05:35:54.067Z,4.43
2019-01-09T05:38:25.917Z,3.47
2019-01-09T05:40:56.365Z,3.67
2019-01-09T05:43:26.843Z,3.67
2019-01-09T05:45:57.133Z,4.03
2019-01-09T05:48:27.885Z,3.65
2019-01-09T05:50:58.519Z,3.03
2019-01-09T05:53:30.300Z,4.35
2019-01-09T05:56:01.966Z,3.67
2019-01-09T05:58:32.312Z,3.93
2019-01-09T06:01:05.881Z,4.67
2019-01-09T06:03:37.257Z,3.87
2019-01-09T06:06:07.661Z,6.07
2019-01-09T06:08:38.233Z,4.53
2019-01-09T06:11:08.734Z,4.83
2019-01-09T06:13:39.886Z,4.74
2019-01-09T06:16:11.697Z,4.07
2019-01-09T06:18:45.696Z,4.20
2019-01-09T06:21:16.025Z,3.57
2019-01-09T06:23:49.099Z,3.90
2019-01-09T06:26:19.394Z,4.00
2019-01-09T06:28:50.868Z,5.30
2019-01-09T06:31:21.115Z,4.43
2019-01-09T06:33:53.088Z,4.50
2019-01-09T06:36:25.353Z,5.17
2019-01-09T06:38:57.250Z,2.87
2019-01-09T06:41:27.735Z,3.13
2019-01-09T06:44:00.064Z,5.50
2019-01-09T06:46:32.737Z,6.13
2019-01-09T06:49:04.754Z,5.17
2019-01-09T06:51:35.566Z,5.77
2019-01-09T06:54:07.378Z,4.80
2019-01-09T06:56:37.870Z,3.67
2019-01-09T06:59:08.278Z,4.47
2019-01-09T07:01:38.633Z,4.40
2019-01-09T07:04:09.034Z,4.83
2019-01-09T07:06:39.345Z,5.12
2019-01-09T07:09:09.818Z,6.07
2019-01-09T07:11:44.311Z,6.13
2019-01-09T07:14:14.798Z,5.57
2019-01-09T07:16:47.424Z,5.90
2019-01-09T07:19:17.722Z,5.43
2019-01-09T07:21:50.885Z,5.25
2019-01-09T07:24:21.183Z,5.87
2019-01-09T07:26:56.359Z,5.70
2019-01-09T07:29:26.716Z,6.30
2019-01-09T07:31:57.304Z,6.60
2019-01-09T07:34:27.635Z,6.67
2019-01-09T07:36:58.023Z,8.20
2019-01-09T07:39:29.865Z,7.73
2019-01-09T07:42:00.489Z,7.78
2019-01-09T07:44:37.439Z,7.53
2019-01-09T07:47:07.857Z,7.13
2019-01-09T07:49:38.215Z,6.63
2019-01-09T07:52:08.764Z,6.20
2019-01-09T07:54:39.088Z,8.13
2019-01-09T07:57:12.467Z,6.95
2019-01-09T07:59:45.741Z,6.07
2019-01-09T08:02:17.831Z,6.07
2019-01-09T08:04:48.141Z,5.63
2019-01-09T08:07:19.858Z,6.58
2019-01-09T08:09:50.128Z,7.27
2019-01-09T08:12:21.858Z,5.33
2019-01-09T08:14:52.556Z,7.07
2019-01-09T08:17:24.944Z,5.88
2019-01-09T08:19:55.581Z,6.03
2019-01-09T08:22:27.201Z,5.42
2019-01-09T08:24:57.481Z,6.70
2019-01-09T08:27:28.987Z,5.75
2019-01-09T08:29:59.658Z,5.83
2019-01-09T08:32:29.963Z,6.40
2019-01-09T08:35:00.324Z,6.03
2019-01-09T08:37:34.498Z,6.67
2019-01-09T08:40:06.176Z,6.50
2019-01-09T08:42:46.874Z,7.03
2019-01-09T08:45:17.227Z,8.67
2019-01-09T08:47:48.898Z,6.68
2019-01-09T08:50:19.242Z,8.43
2019-01-09T08:52:54.759Z,7.15
2019-01-09T08:55:26.743Z,6.47
2019-01-09T08:58:00.425Z,6.20
2019-01-09T09:00:30.984Z,6.03
2019-01-09T09:03:01.936Z,6.50
2019-01-09T09:05:32.254Z,6.10
2019-01-09T09:08:11.995Z,5.47
2019-01-09T09:10:36.139Z,5.57
2019-01-09T09:13:07.928Z,4.47
2019-01-09T09:15:38.560Z,5.60
2019-01-09T09:18:10.198Z,5.40
2019-01-09T09:20:40.891Z,5.67
2019-01-09T09:23:13.375Z,5.43
2019-01-09T09:25:47.719Z,4.60
2019-01-09T09:28:19.266Z,3.30
2019-01-09T09:30:49.814Z,3.37
2019-01-09T09:33:20.313Z,3.57
2019-01-09T09:35:50.851Z,4.57
2019-01-09T09:38:24.894Z,4.40
2019-01-09T09:40:55.249Z,4.97
2019-01-09T09:43:27.804Z,3.55
2019-01-09T09:45:58.392Z,2.52
2019-01-09T09:48:29.999Z,3.23
2019-01-09T09:51:02.244Z,2.83
2019-01-09T09:53:32.632Z,2.90
2019-01-09T09:56:03.220Z,2.87
2019-01-09T09:58:35.723Z,2.98
2019-01-09T10:01:06.307Z,2.70
2019-01-09T10:03:38.475Z,2.80
2019-01-09T10:06:09.127Z,2.83
2019-01-09T10:08:39.440Z,2.73
2019-01-09T10:11:11.968Z,3.42
2019-01-09T10:13:42.381Z,3.40
2019-01-09T10:16:12.965Z,4.22
2019-01-09T10:18:43.378Z,2.80
2019-01-09T10:21:13.948Z,3.65
2019-01-09T10:23:44.283Z,3.37
2019-01-09T10:26:14.888Z,3.62
2019-01-09T10:28:48.002Z,4.27
2019-01-09T10:31:18.277Z,4.23
2019-01-09T10:33:48.795Z,6.27
2019-01-09T10:36:20.738Z,5.06
2019-01-09T10:38:52.205Z,7.30
2019-01-09T10:41:23.250Z,3.40
2019-01-09T10:43:53.593Z,4.17
2019-01-09T10:46:25.842Z,3.63
2019-01-09T10:48:56.162Z,4.13
2019-01-09T10:51:26.785Z,3.60
2019-01-09T10:53:57.069Z,3.80
2019-01-09T10:56:31.668Z,3.23
2019-01-09T10:59:03.929Z,2.67
2019-01-09T11:01:37.379Z,2.27
2019-01-09T11:04:09.526Z,2.40
2019-01-09T11:06:39.882Z,2.67
2019-01-09T11:09:10.380Z,2.50
2019-01-09T11:11:40.730Z,2.77
2019-01-09T11:14:11.387Z,2.65
2019-01-09T11:16:41.880Z,2.93
2019-01-09T11:19:13.668Z,2.60
2019-01-09T11:21:44.235Z,2.10
2019-01-09T11:24:14.841Z,3.02
2019-01-09T11:26:45.282Z,2.17
2019-01-09T11:29:15.853Z,2.60
2019-01-09T11:31:46.291Z,2.20
2019-01-09T11:34:17.074Z,1.80
2019-01-09T11:36:47.663Z,1.93
2019-01-09T11:39:18.474Z,2.87
2019-01-09T11:41:49.211Z,1.70
2019-01-09T11:44:21.249Z,2.62
2019-01-09T11:46:53.417Z,2.00
2019-01-09T11:49:23.940Z,2.27
2019-01-09T11:51:54.263Z,2.50
2019-01-09T11:54:24.838Z,2.30
2019-01-09T11:56:55.193Z,1.60
2019-01-09T11:59:25.660Z,2.00
2019-01-09T12:01:56.485Z,2.37
2019-01-09T12:04:27.069Z,2.47
2019-01-09T12:06:57.469Z,2.13
2019-01-09T12:09:28.074Z,2.80
2019-01-09T12:11:58.670Z,2.27
2019-01-09T12:14:30.322Z,1.90
2019-01-09T12:17:02.157Z,2.50
2019-01-09T12:19:32.451Z,1.90
2019-01-09T12:22:03.098Z,2.63
2019-01-09T12:24:34.523Z,2.33
2019-01-09T12:27:05.327Z,2.35
2019-01-09T12:29:48.302Z,1.97
2019-01-09T12:32:19.050Z,2.43
2019-01-09T12:34:49.451Z,2.13
2019-01-09T12:37:20.004Z,2.22
2019-01-09T12:39:50.304Z,2.33
2019-01-09T12:42:21.075Z,2.37
2019-01-09T12:44:51.650Z,2.03
2019-01-09T12:47:22.063Z,2.40
2019-01-09T12:49:52.386Z,1.60
2019-01-09T12:52:23.100Z,2.00
2019-01-09T12:54:53.596Z,1.90
2019-01-09T12:57:24.643Z,2.03
2019-01-09T13:00:11.750Z,2.03
2019-01-09T13:02:42.386Z,2.30
2019-01-09T13:05:12.985Z,1.53
2019-01-09T13:07:44.571Z,1.50
2019-01-09T13:10:14.858Z,1.80
2019-01-09T13:12:45.600Z,1.80
2019-01-09T13:15:15.941Z,1.87
2019-01-09T13:17:46.779Z,1.70
2019-01-09T13:20:17.295Z,1.93
2019-01-09T13:22:49.089Z,1.94
2019-01-09T13:25:19.416Z,1.83
2019-01-09T13:27:50.625Z,2.12
2019-01-09T13:30:23.080Z,2.00
2019-01-09T13:32:54.863Z,1.87
2019-01-09T13:35:25.613Z,2.10
2019-01-09T13:37:57.288Z,2.07
2019-01-09T13:40:27.644Z,1.80
2019-01-09T13:42:59.496Z,1.80
2019-01-09T13:45:29.803Z,1.77
2019-01-09T13:48:00.332Z,1.80
2019-01-09T13:50:31.599Z,1.50
2019-01-09T13:53:03.892Z,2.30
2019-01-09T13:55:34.519Z,1.90
2019-01-09T13:58:04.989Z,1.70
2019-01-09T14:00:36.992Z,1.57
2019-01-09T14:03:07.374Z,2.30
2019-01-09T14:05:37.695Z,1.80
2019-01-09T14:08:08.126Z,1.50
2019-01-09T14:10:40.350Z,2.02
2019-01-09T14:13:10.797Z,1.50
2019-01-09T14:15:41.414Z,1.80
2019-01-09T14:18:11.777Z,2.00
2019-01-09T14:20:44.055Z,2.20
2019-01-09T14:23:15.657Z,2.20
2019-01-09T14:25:46.498Z,1.97
2019-01-09T14:28:18.928Z,2.23
2019-01-09T14:30:49.560Z,1.77
2019-01-09T14:33:19.936Z,2.07
2019-01-09T14:35:53.432Z,2.10
2019-01-09T14:38:23.757Z,1.70
2019-01-09T14:40:55.294Z,1.60
2019-01-09T14:43:25.689Z,2.13
2019-01-09T14:45:57.789Z,2.17
2019-01-09T14:48:29.451Z,1.75
2019-01-09T14:50:59.909Z,1.87
2019-01-09T14:53:30.833Z,1.60
2019-01-09T14:56:02.825Z,2.00
2019-01-09T14:58:33.715Z,1.98
2019-01-09T15:01:04.317Z,1.73
2019-01-09T15:03:35.227Z,2.40
2019-01-09T15:06:06.200Z,1.73
2019-01-09T15:08:37.086Z,1.45
2019-01-09T15:11:07.666Z,2.40
2019-01-09T15:13:38.437Z,1.60
2019-01-09T15:16:08.800Z,2.30
2019-01-09T15:18:42.753Z,2.22
2019-01-09T15:21:13.130Z,1.73
2019-01-09T15:23:45.589Z,1.98
2019-01-09T15:26:15.954Z,2.10
2019-01-09T15:28:48.636Z,1.87
2019-01-09T15:31:18.920Z,1.90
2019-01-09T15:33:52.635Z,2.05
2019-01-09T15:36:23.114Z,2.07
2019-01-09T15:38:54.169Z,2.27
2019-01-09T15:41:24.690Z,2.40
2019-01-09T15:43:55.733Z,2.20
2019-01-09T15:46:26.270Z,2.03
2019-01-09T15:48:56.764Z,2.30
2019-01-09T15:51:27.152Z,1.93
2019-01-09T15:53:57.616Z,1.73
2019-01-09T15:56:28.283Z,2.27
2019-01-09T15:58:59.893Z,2.30
2019-01-09T16:01:30.375Z,1.70
2019-01-09T16:04:07.928Z,1.83
2019-01-09T16:06:38.640Z,1.87
2019-01-09T16:09:10.577Z,1.83
2019-01-09T16:11:41.270Z,2.17
2019-01-09T16:14:11.943Z,2.40
2019-01-09T16:16:42.316Z,2.00
2019-01-09T16:19:14.180Z,2.73
2019-01-09T16:21:47.070Z,3.23
2019-01-09T16:24:18.984Z,2.13
2019-01-09T16:26:49.647Z,2.80
2019-01-09T16:29:20.010Z,2.20
2019-01-09T16:31:50.357Z,2.53
2019-01-09T16:34:20.688Z,2.67
2019-01-09T16:36:51.594Z,2.27
2019-01-09T16:39:30.540Z,2.30
2019-01-09T16:41:56.962Z,3.14
2019-01-09T16:44:27.305Z,2.60
2019-01-09T16:46:59.670Z,2.80
2019-01-09T16:49:30.157Z,1.63
2019-01-09T16:52:01.311Z,2.42
2019-01-09T16:54:31.958Z,2.67
2019-01-09T16:57:05.449Z,2.83
2019-01-09T16:59:35.973Z,2.07
2019-01-09T17:02:09.516Z,2.70
2019-01-09T17:04:41.704Z,2.20
2019-01-09T17:07:12.255Z,2.08
2019-01-09T17:09:49.295Z,2.97
2019-01-09T17:12:21.512Z,2.33
2019-01-09T17:14:51.949Z,2.47
2019-01-09T17:17:22.379Z,1.93
2019-01-09T17:19:54.079Z,2.70
2019-01-09T17:22:25.560Z,2.33
2019-01-09T17:24:56.009Z,2.10
2019-01-09T17:27:27.728Z,2.80
2019-01-09T17:29:58.182Z,2.33
2019-01-09T17:32:28.538Z,2.80
2019-01-09T17:34:59.535Z,2.30
2019-01-09T17:37:29.893Z,2.93
2019-01-09T17:40:00.490Z,2.30
2019-01-09T17:42:31.011Z,1.87
2019-01-09T17:45:05.685Z,2.37
2019-01-09T17:47:35.791Z,2.10
2019-01-09T17:50:13.156Z,2.43
2019-01-09T17:52:44.543Z,2.03
2019-01-09T17:55:15.315Z,3.02
2019-01-09T17:58:01.227Z,2.70
2019-01-09T18:00:25.101Z,2.60
2019-01-09T18:02:56.770Z,1.87
2019-01-09T18:05:27.159Z,2.20
2019-01-09T18:07:58.167Z,2.13
2019-01-09T18:10:28.980Z,2.23
2019-01-09T18:12:59.975Z,2.30
2019-01-09T18:15:31.481Z,2.07
2019-01-09T18:18:01.881Z,2.10
2019-01-09T18:20:32.722Z,2.60
2019-01-09T18:23:03.064Z,2.87
2019-01-09T18:25:34.057Z,2.33
2019-01-09T18:28:04.495Z,2.23
2019-01-09T18:31:08.611Z,2.23
2019-01-09T18:33:46.837Z,2.67
2019-01-09T18:36:44.746Z,2.23
2019-01-09T18:39:56.213Z,2.00
2019-01-09T18:43:05.737Z,2.83
2019-01-09T18:46:08.046Z,2.53
2019-01-09T18:49:19.464Z,2.70
2019-01-09T18:52:52.369Z,3.25
2019-01-09T18:55:24.646Z,2.90
2019-01-09T18:57:57.636Z,2.10
2019-01-09T19:00:28.155Z,2.83
2019-01-09T19:02:58.937Z,3.20
2019-01-09T19:05:33.754Z,3.23
2019-01-09T19:08:04.802Z,2.63
2019-01-09T19:10:36.629Z,2.63
2019-01-09T19:13:06.876Z,2.47
2019-01-09T19:15:37.590Z,2.70
2019-01-09T19:18:08.321Z,2.72
2019-01-09T19:20:40.124Z,2.50
2019-01-09T19:23:11.346Z,2.77
2019-01-09T19:25:41.979Z,2.07
2019-01-09T19:28:14.190Z,2.30
2019-01-09T19:30:45.113Z,3.33
2019-01-09T19:33:16.766Z,2.50
2019-01-09T19:35:48.705Z,2.97
2019-01-09T19:38:19.647Z,2.55
2019-01-09T19:40:51.674Z,2.73
2019-01-09T19:43:22.431Z,3.62
2019-01-09T19:45:52.855Z,2.87
2019-01-09T19:48:24.113Z,2.77
2019-01-09T19:50:54.479Z,2.83
2019-01-09T19:53:24.893Z,2.97
2019-01-09T19:55:55.720Z,2.85
2019-01-09T19:58:29.307Z,2.70
2019-01-09T20:01:01.592Z,3.30
2019-01-09T20:03:35.765Z,2.10
2019-01-09T20:06:07.648Z,3.00
2019-01-09T20:08:40.055Z,2.40
2019-01-09T20:11:12.237Z,2.45
2019-01-09T20:13:44.011Z,3.52
2019-01-09T20:16:14.726Z,3.33
2019-01-09T20:18:45.226Z,2.97
2019-01-09T20:21:16.206Z,3.03
2019-01-09T20:23:47.156Z,3.13
2019-01-09T20:26:17.792Z,2.50
2019-01-09T20:28:48.206Z,2.47
2019-01-09T20:31:20.388Z,2.80
2019-01-09T20:33:51.165Z,2.93
2019-01-09T20:36:23.780Z,3.57
2019-01-09T20:38:54.119Z,2.77
2019-01-09T20:41:34.923Z,2.50
2019-01-09T20:43:58.061Z,2.93
2019-01-09T20:46:28.521Z,2.50
2019-01-09T20:48:59.129Z,2.77
2019-01-09T20:51:29.580Z,2.63
2019-01-09T20:54:00.136Z,3.10
2019-01-09T20:56:30.675Z,2.33
2019-01-09T20:59:01.351Z,3.50
2019-01-09T21:01:32.664Z,3.72
2019-01-09T21:04:02.988Z,2.70
2019-01-09T21:06:39.566Z,3.83
2019-01-09T21:09:11.091Z,2.23
2019-01-09T21:11:44.437Z,2.93
2019-01-09T21:14:15.385Z,2.37
2019-01-09T21:16:45.889Z,3.50
2019-01-09T21:19:16.383Z,2.60
2019-01-09T21:21:47.066Z,2.90
2019-01-09T21:24:21.238Z,2.70
2019-01-09T21:26:57.120Z,2.73
2019-01-09T21:29:28.675Z,2.90
2019-01-09T21:31:59.256Z,2.60
2019-01-09T21:34:31.658Z,2.80
2019-01-09T21:37:01.998Z,3.00
2019-01-09T21:39:34.847Z,2.72
2019-01-09T21:42:05.564Z,2.57
2019-01-09T21:44:36.098Z,3.17
2019-01-09T21:47:06.657Z,2.50
2019-01-09T21:49:37.096Z,2.50
2019-01-09T21:52:07.550Z,3.10
2019-01-09T21:54:37.856Z,2.80
2019-01-09T21:57:10.819Z,3.10
2019-01-09T21:59:41.484Z,3.00
2019-01-09T22:02:13.012Z,3.33
2019-01-09T22:04:49.399Z,3.72
2019-01-09T22:07:19.829Z,3.00
2019-01-09T22:09:51.591Z,3.13
2019-01-09T22:14:58.254Z,3.53
2019-01-09T22:17:28.576Z,2.97
2019-01-09T22:19:58.937Z,3.87
2019-01-09T22:22:29.449Z,3.30
2019-01-09T22:25:00.201Z,3.63
2019-01-09T22:27:30.730Z,3.43
2019-01-09T22:30:01.435Z,2.97
2019-01-09T22:32:31.761Z,3.67
2019-01-09T22:35:04.628Z,3.72
2019-01-09T22:37:36.709Z,4.03
2019-01-09T22:40:12.454Z,3.67
2019-01-09T22:42:43.173Z,3.90
2019-01-09T22:47:51.010Z,3.47
2019-01-09T22:50:24.960Z,3.67
2019-01-09T22:52:55.252Z,3.47
2019-01-09T22:55:25.873Z,3.73
2019-01-09T22:57:56.401Z,3.63
2019-01-09T23:00:38.754Z,3.62
2019-01-09T23:03:13.325Z,3.55
2019-01-09T23:05:43.714Z,3.77
2019-01-09T23:08:15.541Z,3.70
2019-01-09T23:10:54.453Z,3.70
2019-01-09T23:13:20.454Z,3.30
2019-01-09T23:15:53.124Z,3.60
2019-01-09T23:18:26.704Z,2.93
2019-01-09T23:20:57.387Z,4.50
2019-01-09T23:23:28.144Z,3.27
2019-01-09T23:25:58.513Z,3.67
2019-01-09T23:28:30.798Z,3.53
2019-01-09T23:31:01.455Z,3.10
2019-01-09T23:33:33.278Z,3.60
2019-01-09T23:36:04.249Z,3.97
2019-01-09T23:38:35.021Z,3.20
2019-01-09T23:41:06.535Z,4.17
2019-01-09T23:43:36.884Z,2.73
2019-01-09T23:46:08.721Z,3.03
2019-01-09T23:48:39.024Z,3.60
2019-01-09T23:51:09.470Z,3.42
2019-01-09T23:53:39.959Z,3.53
2019-01-09T23:56:11.504Z,3.80
2019-01-09T23:58:41.876Z,3.50
